Main page
Satellite images 10-day forecastsClimateMarine weather Cyclones Lightning AirportsFAQ Newsletter About
Weather : Europe Africa North America South America Asia Australia-Oceania Others
Languages Contact

Bauru, São Paulo, Brazil

latitude: 22-19S, longitude: 049-04W, elevation: 590 m


METAR: SBBU 270500Z 01006KT 9999 SCT015 21/21 Q1015
TAF: missing

Time: 03:41 (05:41 UTC)

Current weather observation

The report was made 41 minutes ago, at 05:00 UTC
Wind 6 kt from the North
Temperature 21°C
Humidity 100%
Pressure 1015 hPa
Visibility 10 km or more
Scattered clouds at a height of 1500 ft

Change units
The information on this site is subject to a disclaimer
Weather : Europe Africa North America South America Asia Australia-Oceania Others
Satellite images 10-day forecastsClimateMarine weather Cyclones Lightning AirportsFAQ Languages Contact Newsletter About